sensor_id;sensor_type;location;lat;lon;timestamp;pressure;altitude;pressure_sealevel;temperature;humidity
27429;BME280;14881;48.092;11.574;2023-11-22T00:01:04;95542.94;;;5.96;100.00
27429;BME280;14881;48.092;11.574;2023-11-22T00:03:30;95538.09;;;5.98;100.00
27429;BME280;14881;48.092;11.574;2023-11-22T00:05:57;95531.13;;;6.02;100.00
27429;BME280;14881;48.092;11.574;2023-11-22T00:08:24;95529.47;;;5.96;100.00
27429;BME280;14881;48.092;11.574;2023-11-22T00:10:50;95535.38;;;5.92;100.00
27429;BME280;14881;48.092;11.574;2023-11-22T00:13:17;95538.31;;;5.91;100.00
27429;BME280;14881;48.092;11.574;2023-11-22T00:15:43;95546.44;;;5.96;100.00
27429;BME280;14881;48.092;11.574;2023-11-22T00:18:09;95539.69;;;5.93;100.00
27429;BME280;14881;48.092;11.574;2023-11-22T00:20:36;95537.84;;;5.99;100.00
27429;BME280;14881;48.092;11.574;2023-11-22T00:23:04;95542.69;;;5.97;100.00
27429;BME280;14881;48.092;11.574;2023-11-22T00:25:31;95534.34;;;5.99;100.00
27429;BME280;14881;48.092;11.574;2023-11-22T00:27:59;95541.34;;;6.00;100.00
27429;BME280;14881;48.092;11.574;2023-11-22T00:30:28;95543.81;;;6.06;100.00
27429;BME280;14881;48.092;11.574;2023-11-22T00:32:54;95545.41;;;6.02;100.00
27429;BME280;14881;48.092;11.574;2023-11-22T00:35:21;95541.63;;;5.98;100.00
27429;BME280;14881;48.092;11.574;2023-11-22T00:37:47;95537.84;;;5.99;100.00
27429;BME280;14881;48.092;11.574;2023-11-22T00:40:15;95537.31;;;6.02;100.00
27429;BME280;14881;48.092;11.574;2023-11-22T00:42:42;95549.47;;;6.05;100.00
27429;BME280;14881;48.092;11.574;2023-11-22T00:45:09;95553.75;;;6.01;100.00
27429;BME280;14881;48.092;11.574;2023-11-22T00:47:36;95556.97;;;5.98;100.00
27429;BME280;14881;48.092;11.574;2023-11-22T00:50:03;95555.38;;;6.02;100.00
27429;BME280;14881;48.092;11.574;2023-11-22T00:52:30;95549.69;;;5.98;100.00
27429;BME280;14881;48.092;11.574;2023-11-22T00:54:57;95555.34;;;5.97;100.00
27429;BME280;14881;48.092;11.574;2023-11-22T00:57:23;95555.88;;;5.93;100.00
27429;BME280;14881;48.092;11.574;2023-11-22T00:59:50;95555.84;;;5.88;100.00
27429;BME280;14881;48.092;11.574;2023-11-22T01:02:18;95563.69;;;5.95;100.00
27429;BME280;14881;48.092;11.574;2023-11-22T01:04:44;95563.41;;;5.91;100.00
27429;BME280;14881;48.092;11.574;2023-11-22T01:07:11;95568.38;;;6.05;100.00
27429;BME280;14881;48.092;11.574;2023-11-22T01:09:37;95561.09;;;6.05;100.00
27429;BME280;14881;48.092;11.574;2023-11-22T01:12:04;95569.13;;;6.00;100.00
27429;BME280;14881;48.092;11.574;2023-11-22T01:14:31;95575.25;;;5.90;100.00
27429;BME280;14881;48.092;11.574;2023-11-22T01:16:58;95569.59;;;5.92;100.00
27429;BME280;14881;48.092;11.574;2023-11-22T01:19:24;95565.22;;;5.86;100.00
27429;BME280;14881;48.092;11.574;2023-11-22T01:21:52;95569.50;;;5.82;100.00
27429;BME280;14881;48.092;11.574;2023-11-22T01:24:18;95574.59;;;5.78;100.00
27429;BME280;14881;48.092;11.574;2023-11-22T01:26:44;95575.91;;;5.76;100.00
27429;BME280;14881;48.092;11.574;2023-11-22T01:29:11;95573.47;;;5.74;100.00
27429;BME280;14881;48.092;11.574;2023-11-22T01:31:38;95578.88;;;5.74;100.00
27429;BME280;14881;48.092;11.574;2023-11-22T01:34:05;95583.44;;;5.74;100.00
27429;BME280;14881;48.092;11.574;2023-11-22T01:36:34;95576.16;;;5.74;100.00
27429;BME280;14881;48.092;11.574;2023-11-22T01:39:00;95576.56;;;5.88;100.00
27429;BME280;14881;48.092;11.574;2023-11-22T01:41:28;95581.34;;;5.81;100.00
27429;BME280;14881;48.092;11.574;2023-11-22T01:43:56;95583.75;;;5.77;100.00
27429;BME280;14881;48.092;11.574;2023-11-22T01:46:24;95586.13;;;5.74;100.00
27429;BME280;14881;48.092;11.574;2023-11-22T01:48:52;95592.66;;;5.78;100.00
27429;BME280;14881;48.092;11.574;2023-11-22T01:51:20;95590.19;;;5.76;100.00
27429;BME280;14881;48.092;11.574;2023-11-22T01:53:48;95595.91;;;5.80;100.00
27429;BME280;14881;48.092;11.574;2023-11-22T01:56:16;95596.97;;;5.79;100.00
27429;BME280;14881;48.092;11.574;2023-11-22T01:58:43;95589.94;;;5.78;100.00
27429;BME280;14881;48.092;11.574;2023-11-22T02:01:10;95582.69;;;5.78;100.00
27429;BME280;14881;48.092;11.574;2023-11-22T02:03:39;95584.50;;;5.73;100.00
27429;BME280;14881;48.092;11.574;2023-11-22T02:06:06;95585.56;;;5.72;100.00
27429;BME280;14881;48.092;11.574;2023-11-22T02:08:33;95591.78;;;5.72;100.00
27429;BME280;14881;48.092;11.574;2023-11-22T02:11:00;95584.81;;;5.76;100.00
27429;BME280;14881;48.092;11.574;2023-11-22T02:13:29;95593.16;;;5.75;100.00
27429;BME280;14881;48.092;11.574;2023-11-22T02:15:55;95593.97;;;5.75;100.00
27429;BME280;14881;48.092;11.574;2023-11-22T02:18:22;95596.91;;;5.74;100.00
27429;BME280;14881;48.092;11.574;2023-11-22T02:20:49;95603.34;;;5.68;100.00
27429;BME280;14881;48.092;11.574;2023-11-22T02:23:16;95608.84;;;5.51;100.00
27429;BME280;14881;48.092;11.574;2023-11-22T02:25:43;95614.59;;;5.33;100.00
27429;BME280;14881;48.092;11.574;2023-11-22T02:28:09;95621.66;;;5.12;100.00
27429;BME280;14881;48.092;11.574;2023-11-22T02:30:36;95629.97;;;4.88;100.00
27429;BME280;14881;48.092;11.574;2023-11-22T02:33:02;95636.38;;;4.82;100.00
27429;BME280;14881;48.092;11.574;2023-11-22T02:35:30;95627.22;;;4.62;100.00
27429;BME280;14881;48.092;11.574;2023-11-22T02:37:57;95632.66;;;4.45;100.00
27429;BME280;14881;48.092;11.574;2023-11-22T02:40:25;95632.88;;;4.43;100.00
27429;BME280;14881;48.092;11.574;2023-11-22T02:42:53;95636.72;;;4.47;100.00
27429;BME280;14881;48.092;11.574;2023-11-22T02:45:22;95640.63;;;4.40;100.00
27429;BME280;14881;48.092;11.574;2023-11-22T02:47:48;95646.94;;;4.29;100.00
27429;BME280;14881;48.092;11.574;2023-11-22T02:50:15;95640.59;;;4.01;100.00
27429;BME280;14881;48.092;11.574;2023-11-22T02:52:42;95659.00;;;3.93;100.00
27429;BME280;14881;48.092;11.574;2023-11-22T02:55:09;95657.47;;;3.80;100.00
27429;BME280;14881;48.092;11.574;2023-11-22T02:57:36;95644.66;;;3.70;100.00
27429;BME280;14881;48.092;11.574;2023-11-22T03:00:04;95649.38;;;3.63;100.00
27429;BME280;14881;48.092;11.574;2023-11-22T03:02:30;95653.50;;;3.54;100.00
27429;BME280;14881;48.092;11.574;2023-11-22T03:04:57;95657.72;;;3.50;100.00
27429;BME280;14881;48.092;11.574;2023-11-22T03:07:25;95662.28;;;3.49;100.00
27429;BME280;14881;48.092;11.574;2023-11-22T03:09:51;95666.75;;;3.44;100.00
27429;BME280;14881;48.092;11.574;2023-11-22T03:12:18;95669.00;;;3.35;100.00
27429;BME280;14881;48.092;11.574;2023-11-22T03:14:46;95673.72;;;3.28;100.00
27429;BME280;14881;48.092;11.574;2023-11-22T03:17:14;95673.56;;;3.35;100.00
27429;BME280;14881;48.092;11.574;2023-11-22T03:19:41;95677.69;;;3.26;100.00
27429;BME280;14881;48.092;11.574;2023-11-22T03:22:07;95677.69;;;3.26;100.00
27429;BME280;14881;48.092;11.574;2023-11-22T03:24:34;95689.28;;;3.14;100.00
27429;BME280;14881;48.092;11.574;2023-11-22T03:27:03;95696.66;;;3.07;100.00
27429;BME280;14881;48.092;11.574;2023-11-22T03:29:29;95693.53;;;2.99;100.00
27429;BME280;14881;48.092;11.574;2023-11-22T03:31:56;95698.06;;;2.98;100.00
27429;BME280;14881;48.092;11.574;2023-11-22T03:34:22;95701.22;;;2.95;100.00
27429;BME280;14881;48.092;11.574;2023-11-22T03:36:50;95705.22;;;2.93;100.00
27429;BME280;14881;48.092;11.574;2023-11-22T03:39:16;95718.63;;;2.81;100.00
27429;BME280;14881;48.092;11.574;2023-11-22T03:41:43;95718.66;;;2.69;100.00
27429;BME280;14881;48.092;11.574;2023-11-22T03:44:09;95720.88;;;2.72;100.00
27429;BME280;14881;48.092;11.574;2023-11-22T03:46:36;95727.41;;;2.76;100.00
27429;BME280;14881;48.092;11.574;2023-11-22T03:49:03;95729.59;;;2.79;100.00
27429;BME280;14881;48.092;11.574;2023-11-22T03:51:29;95727.88;;;2.73;100.00
27429;BME280;14881;48.092;11.574;2023-11-22T03:53:56;95730.78;;;2.72;100.00
27429;BME280;14881;48.092;11.574;2023-11-22T03:56:22;95743.72;;;2.63;100.00
27429;BME280;14881;48.092;11.574;2023-11-22T03:58:49;95748.28;;;2.63;100.00
27429;BME280;14881;48.092;11.574;2023-11-22T04:01:15;95750.72;;;2.53;100.00
27429;BME280;14881;48.092;11.574;2023-11-22T04:03:42;95755.41;;;2.57;100.00
27429;BME280;14881;48.092;11.574;2023-11-22T04:06:09;95753.63;;;2.51;100.00
27429;BME280;14881;48.092;11.574;2023-11-22T04:08:36;95763.88;;;2.42;100.00
27429;BME280;14881;48.092;11.574;2023-11-22T04:11:03;95768.19;;;2.43;100.00
27429;BME280;14881;48.092;11.574;2023-11-22T04:13:31;95764.47;;;2.44;100.00
27429;BME280;14881;48.092;11.574;2023-11-22T04:15:58;95764.97;;;2.41;100.00
27429;BME280;14881;48.092;11.574;2023-11-22T04:18:25;95760.41;;;2.42;100.00
27429;BME280;14881;48.092;11.574;2023-11-22T04:20:53;95766.81;;;2.41;100.00
27429;BME280;14881;48.092;11.574;2023-11-22T04:23:20;95768.69;;;2.52;100.00
27429;BME280;14881;48.092;11.574;2023-11-22T04:25:47;95764.72;;;2.55;100.00
27429;BME280;14881;48.092;11.574;2023-11-22T04:28:15;95769.28;;;2.54;100.00
27429;BME280;14881;48.092;11.574;2023-11-22T04:30:41;95775.09;;;2.51;100.00
27429;BME280;14881;48.092;11.574;2023-11-22T04:33:07;95776.28;;;2.55;100.00
27429;BME280;14881;48.092;11.574;2023-11-22T04:35:34;95767.03;;;2.51;100.00
27429;BME280;14881;48.092;11.574;2023-11-22T04:38:02;95777.88;;;2.44;100.00
27429;BME280;14881;48.092;11.574;2023-11-22T04:40:30;95784.06;;;2.45;100.00
27429;BME280;14881;48.092;11.574;2023-11-22T04:42:56;95781.38;;;2.45;100.00
27429;BME280;14881;48.092;11.574;2023-11-22T04:45:23;95778.00;;;2.61;100.00
27429;BME280;14881;48.092;11.574;2023-11-22T04:47:49;95792.00;;;2.52;100.00
27429;BME280;14881;48.092;11.574;2023-11-22T04:50:16;95803.31;;;2.54;100.00
27429;BME280;14881;48.092;11.574;2023-11-22T04:52:43;95799.81;;;2.53;100.00
27429;BME280;14881;48.092;11.574;2023-11-22T04:55:09;95799.34;;;2.56;100.00
27429;BME280;14881;48.092;11.574;2023-11-22T04:57:37;95800.63;;;2.65;100.00
27429;BME280;14881;48.092;11.574;2023-11-22T05:00:04;95805.88;;;2.60;100.00
27429;BME280;14881;48.092;11.574;2023-11-22T05:02:32;95817.41;;;2.61;100.00
27429;BME280;14881;48.092;11.574;2023-11-22T05:04:59;95812.84;;;2.50;100.00
27429;BME280;14881;48.092;11.574;2023-11-22T05:07:25;95816.13;;;2.52;100.00
27429;BME280;14881;48.092;11.574;2023-11-22T05:09:52;95817.41;;;2.61;100.00
27429;BME280;14881;48.092;11.574;2023-11-22T05:12:18;95814.84;;;2.54;100.00
27429;BME280;14881;48.092;11.574;2023-11-22T05:14:45;95817.66;;;2.59;100.00
27429;BME280;14881;48.092;11.574;2023-11-22T05:17:12;95820.56;;;2.58;100.00
27429;BME280;14881;48.092;11.574;2023-11-22T05:19:38;95825.81;;;2.53;100.00
27429;BME280;14881;48.092;11.574;2023-11-22T05:22:04;95828.03;;;2.56;100.00
27429;BME280;14881;48.092;11.574;2023-11-22T05:24:31;95834.66;;;2.53;100.00
27429;BME280;14881;48.092;11.574;2023-11-22T05:26:57;95832.56;;;2.55;100.00
27429;BME280;14881;48.092;11.574;2023-11-22T05:29:23;95838.72;;;2.44;100.00
27429;BME280;14881;48.092;11.574;2023-11-22T05:31:54;95834.16;;;2.44;100.00
27429;BME280;14881;48.092;11.574;2023-11-22T05:34:21;95838.94;;;2.42;100.00
27429;BME280;14881;48.092;11.574;2023-11-22T05:36:47;95842.94;;;2.40;100.00
27429;BME280;14881;48.092;11.574;2023-11-22T05:39:14;95849.09;;;2.40;100.00
27429;BME280;14881;48.092;11.574;2023-11-22T05:41:40;95850.50;;;2.43;100.00
27429;BME280;14881;48.092;11.574;2023-11-22T05:44:07;95861.22;;;2.43;100.00
27429;BME280;14881;48.092;11.574;2023-11-22T05:46:34;95867.50;;;2.37;100.00
27429;BME280;14881;48.092;11.574;2023-11-22T05:49:01;95872.91;;;2.49;100.00
27429;BME280;14881;48.092;11.574;2023-11-22T05:51:27;95874.75;;;2.48;100.00
27429;BME280;14881;48.092;11.574;2023-11-22T05:53:53;95869.19;;;2.61;100.00
27429;BME280;14881;48.092;11.574;2023-11-22T05:56:20;95879.44;;;2.53;100.00
27429;BME280;14881;48.092;11.574;2023-11-22T05:58:46;95879.88;;;2.50;100.00
27429;BME280;14881;48.092;11.574;2023-11-22T06:01:13;95878.03;;;2.50;100.00
27429;BME280;14881;48.092;11.574;2023-11-22T06:03:39;95882.72;;;2.55;100.00
27429;BME280;14881;48.092;11.574;2023-11-22T06:06:07;95892.47;;;2.49;100.00
27429;BME280;14881;48.092;11.574;2023-11-22T06:08:33;95899.69;;;2.49;100.00
27429;BME280;14881;48.092;11.574;2023-11-22T06:11:00;95892.75;;;2.59;100.00
27429;BME280;14881;48.092;11.574;2023-11-22T06:13:26;95899.97;;;2.59;100.00
27429;BME280;14881;48.092;11.574;2023-11-22T06:15:53;95908.19;;;2.45;100.00
27429;BME280;14881;48.092;11.574;2023-11-22T06:18:20;95907.28;;;2.40;100.00
27429;BME280;14881;48.092;11.574;2023-11-22T06:20:46;95907.59;;;2.32;100.00
27429;BME280;14881;48.092;11.574;2023-11-22T06:23:14;95908.16;;;2.34;100.00
27429;BME280;14881;48.092;11.574;2023-11-22T06:25:41;95902.94;;;2.39;100.00
27429;BME280;14881;48.092;11.574;2023-11-22T06:28:08;95915.03;;;2.30;100.00
27429;BME280;14881;48.092;11.574;2023-11-22T06:30:35;95912.03;;;2.38;100.00
27429;BME280;14881;48.092;11.574;2023-11-22T06:33:01;95921.56;;;2.34;100.00
27429;BME280;14881;48.092;11.574;2023-11-22T06:35:28;95920.91;;;2.38;100.00
27429;BME280;14881;48.092;11.574;2023-11-22T06:37:54;95922.63;;;2.33;100.00
27429;BME280;14881;48.092;11.574;2023-11-22T06:40:21;95926.72;;;2.35;100.00
27429;BME280;14881;48.092;11.574;2023-11-22T06:42:48;95934.31;;;2.38;100.00
27429;BME280;14881;48.092;11.574;2023-11-22T06:45:15;95933.50;;;2.38;100.00
27429;BME280;14881;48.092;11.574;2023-11-22T06:47:43;95945.09;;;2.32;100.00
27429;BME280;14881;48.092;11.574;2023-11-22T06:50:10;95942.66;;;2.30;100.00
27429;BME280;14881;48.092;11.574;2023-11-22T06:52:38;95943.63;;;2.36;100.00
27429;BME280;14881;48.092;11.574;2023-11-22T06:55:05;95953.53;;;2.35;100.00
27429;BME280;14881;48.092;11.574;2023-11-22T06:57:34;95950.16;;;2.40;100.00
27429;BME280;14881;48.092;11.574;2023-11-22T07:00:01;95954.16;;;2.49;100.00
27429;BME280;14881;48.092;11.574;2023-11-22T07:02:31;95959.88;;;2.53;100.00
27429;BME280;14881;48.092;11.574;2023-11-22T07:04:57;95957.34;;;2.58;100.00
27429;BME280;14881;48.092;11.574;2023-11-22T07:07:24;95974.34;;;2.52;100.00
27429;BME280;14881;48.092;11.574;2023-11-22T07:09:51;95974.03;;;2.60;100.00
27429;BME280;14881;48.092;11.574;2023-11-22T07:12:17;95969.44;;;2.60;100.00
27429;BME280;14881;48.092;11.574;2023-11-22T07:14:45;95974.59;;;2.62;100.00
27429;BME280;14881;48.092;11.574;2023-11-22T07:17:12;95976.44;;;2.61;100.00
27429;BME280;14881;48.092;11.574;2023-11-22T07:19:38;95981.59;;;2.63;100.00
27429;BME280;14881;48.092;11.574;2023-11-22T07:22:08;95982.41;;;2.63;100.00
27429;BME280;14881;48.092;11.574;2023-11-22T07:24:41;95982.78;;;2.67;100.00
27429;BME280;14881;48.092;11.574;2023-11-22T07:27:10;95978.47;;;2.66;100.00
27429;BME280;14881;48.092;11.574;2023-11-22T07:29:38;95981.38;;;2.64;100.00
27429;BME280;14881;48.092;11.574;2023-11-22T07:32:07;95996.28;;;2.60;100.00
27429;BME280;14881;48.092;11.574;2023-11-22T07:34:34;96005.03;;;2.56;100.00
27429;BME280;14881;48.092;11.574;2023-11-22T07:37:01;96004.91;;;2.62;100.00
27429;BME280;14881;48.092;11.574;2023-11-22T07:39:27;96015.19;;;2.65;100.00
27429;BME280;14881;48.092;11.574;2023-11-22T07:41:54;96022.78;;;2.68;100.00
27429;BME280;14881;48.092;11.574;2023-11-22T07:44:20;96029.13;;;2.74;100.00
27429;BME280;14881;48.092;11.574;2023-11-22T07:46:47;96029.94;;;2.74;100.00
27429;BME280;14881;48.092;11.574;2023-11-22T07:49:14;96034.03;;;2.77;100.00
27429;BME280;14881;48.092;11.574;2023-11-22T07:51:41;96035.63;;;2.78;100.00
27429;BME280;14881;48.092;11.574;2023-11-22T07:54:07;96039.16;;;2.78;100.00
27429;BME280;14881;48.092;11.574;2023-11-22T07:56:34;96053.16;;;2.80;100.00
27429;BME280;14881;48.092;11.574;2023-11-22T07:59:01;96046.38;;;2.78;100.00
27429;BME280;14881;48.092;11.574;2023-11-22T08:01:27;96044.50;;;2.78;100.00
27429;BME280;14881;48.092;11.574;2023-11-22T08:03:55;96039.16;;;2.78;100.00
27429;BME280;14881;48.092;11.574;2023-11-22T08:06:22;96043.16;;;2.88;100.00
27429;BME280;14881;48.092;11.574;2023-11-22T08:08:49;96040.84;;;2.91;100.00
27429;BME280;14881;48.092;11.574;2023-11-22T08:11:17;96049.78;;;2.85;100.00
27429;BME280;14881;48.092;11.574;2023-11-22T08:13:43;96049.88;;;2.78;100.00
27429;BME280;14881;48.092;11.574;2023-11-22T08:16:11;96065.22;;;2.90;100.00
27429;BME280;14881;48.092;11.574;2023-11-22T08:18:39;96070.84;;;3.00;100.00
27429;BME280;14881;48.092;11.574;2023-11-22T08:21:06;96077.72;;;2.96;100.00
27429;BME280;14881;48.092;11.574;2023-11-22T08:23:34;96070.97;;;2.93;100.00
27429;BME280;14881;48.092;11.574;2023-11-22T08:26:01;96089.38;;;2.90;100.00
27429;BME280;14881;48.092;11.574;2023-11-22T08:28:29;96092.13;;;2.83;100.00
27429;BME280;14881;48.092;11.574;2023-11-22T08:30:55;96081.69;;;2.93;100.00
27429;BME280;14881;48.092;11.574;2023-11-22T08:33:22;96082.84;;;2.97;100.00
27429;BME280;14881;48.092;11.574;2023-11-22T08:35:48;96090.78;;;2.92;100.00
27429;BME280;14881;48.092;11.574;2023-11-22T08:38:18;96083.88;;;2.96;100.00
27429;BME280;14881;48.092;11.574;2023-11-22T08:40:45;96077.03;;;3.00;100.00
27429;BME280;14881;48.092;11.574;2023-11-22T08:43:12;96082.84;;;2.97;100.00
27429;BME280;14881;48.092;11.574;2023-11-22T08:45:38;96085.91;;;3.01;100.00
27429;BME280;14881;48.092;11.574;2023-11-22T08:48:09;96089.09;;;3.09;100.00
27429;BME280;14881;48.092;11.574;2023-11-22T08:50:36;96100.22;;;3.25;100.00
27429;BME280;14881;48.092;11.574;2023-11-22T08:53:03;96095.09;;;3.23;100.00
27429;BME280;14881;48.092;11.574;2023-11-22T08:55:30;96109.63;;;3.15;100.00
27429;BME280;14881;48.092;11.574;2023-11-22T08:58:00;96110.34;;;3.11;100.00
27429;BME280;14881;48.092;11.574;2023-11-22T09:00:26;96114.31;;;3.08;100.00
27429;BME280;14881;48.092;11.574;2023-11-22T09:02:54;96120.13;;;3.05;100.00
27429;BME280;14881;48.092;11.574;2023-11-22T09:05:21;96109.47;;;2.99;100.00
27429;BME280;14881;48.092;11.574;2023-11-22T09:07:48;96123.31;;;2.96;100.00
27429;BME280;14881;48.092;11.574;2023-11-22T09:10:14;96121.56;;;2.90;100.00
27429;BME280;14881;48.092;11.574;2023-11-22T09:12:42;96127.97;;;2.89;100.00
27429;BME280;14881;48.092;11.574;2023-11-22T09:15:11;96130.22;;;2.92;100.00
27429;BME280;14881;48.092;11.574;2023-11-22T09:17:42;96140.34;;;2.90;100.00
27429;BME280;14881;48.092;11.574;2023-11-22T09:20:09;96140.34;;;2.90;100.00
27429;BME280;14881;48.092;11.574;2023-11-22T09:22:41;96139.19;;;2.97;100.00
27429;BME280;14881;48.092;11.574;2023-11-22T09:25:12;96152.09;;;3.07;100.00
27429;BME280;14881;48.092;11.574;2023-11-22T09:27:38;96155.56;;;3.26;100.00
27429;BME280;14881;48.092;11.574;2023-11-22T09:30:07;96148.06;;;3.46;100.00
27429;BME280;14881;48.092;11.574;2023-11-22T09:32:37;96150.44;;;3.66;100.00
27429;BME280;14881;48.092;11.574;2023-11-22T09:35:05;96157.72;;;3.77;100.00
27429;BME280;14881;48.092;11.574;2023-11-22T09:37:31;96158.63;;;3.82;100.00
27429;BME280;14881;48.092;11.574;2023-11-22T09:39:58;96162.06;;;3.90;100.00
27429;BME280;14881;48.092;11.574;2023-11-22T09:42:28;96160.88;;;3.85;100.00
27429;BME280;14881;48.092;11.574;2023-11-22T09:44:54;96157.56;;;3.72;100.00
27429;BME280;14881;48.092;11.574;2023-11-22T09:47:21;96152.88;;;3.56;100.00
27429;BME280;14881;48.092;11.574;2023-11-22T09:49:50;96163.00;;;3.54;100.00
27429;BME280;14881;48.092;11.574;2023-11-22T09:52:20;96161.34;;;3.41;100.00
27429;BME280;14881;48.092;11.574;2023-11-22T09:54:53;96167.41;;;3.36;100.00
27429;BME280;14881;48.092;11.574;2023-11-22T09:57:20;96176.25;;;3.37;100.00
27429;BME280;14881;48.092;11.574;2023-11-22T09:59:50;96179.59;;;3.21;100.00
27429;BME280;14881;48.092;11.574;2023-11-22T10:02:19;96170.56;;;3.15;100.00
27429;BME280;14881;48.092;11.574;2023-11-22T10:04:47;96170.53;;;3.03;100.00
27429;BME280;14881;48.092;11.574;2023-11-22T10:07:14;96168.50;;;2.99;100.00
27429;BME280;14881;48.092;11.574;2023-11-22T10:09:40;96167.00;;;3.03;100.00
27429;BME280;14881;48.092;11.574;2023-11-22T10:12:07;96177.16;;;3.01;100.00
27429;BME280;14881;48.092;11.574;2023-11-22T10:14:34;96183.66;;;2.93;100.00
27429;BME280;14881;48.092;11.574;2023-11-22T10:17:01;96175.44;;;3.06;100.00
27429;BME280;14881;48.092;11.574;2023-11-22T10:19:27;96168.44;;;3.05;100.00
27429;BME280;14881;48.092;11.574;2023-11-22T10:22:05;96173.19;;;3.03;100.00
27429;BME280;14881;48.092;11.574;2023-11-22T10:24:34;96174.47;;;3.01;100.00
27429;BME280;14881;48.092;11.574;2023-11-22T10:27:01;96178.41;;;2.98;100.00
27429;BME280;14881;48.092;11.574;2023-11-22T10:29:29;96184.38;;;3.00;100.00
27429;BME280;14881;48.092;11.574;2023-11-22T10:31:55;96179.94;;;2.94;100.00
27429;BME280;14881;48.092;11.574;2023-11-22T10:34:23;96185.16;;;2.89;100.00
27429;BME280;14881;48.092;11.574;2023-11-22T10:36:50;96189.25;;;2.92;100.00
27429;BME280;14881;48.092;11.574;2023-11-22T10:39:19;96185.22;;;2.83;100.00
27429;BME280;14881;48.092;11.574;2023-11-22T10:41:46;96185.44;;;2.81;100.00
27429;BME280;14881;48.092;11.574;2023-11-22T10:44:13;96177.09;;;2.89;100.00
27429;BME280;14881;48.092;11.574;2023-11-22T10:46:42;96179.56;;;2.91;100.00
27429;BME280;14881;48.092;11.574;2023-11-22T10:49:08;96186.47;;;2.80;100.00
27429;BME280;14881;48.092;11.574;2023-11-22T10:51:40;96183.88;;;2.92;100.00
27429;BME280;14881;48.092;11.574;2023-11-22T10:54:07;96188.56;;;2.96;100.00
27429;BME280;14881;48.092;11.574;2023-11-22T10:56:38;96181.47;;;3.02;100.00
27429;BME280;14881;48.092;11.574;2023-11-22T10:59:10;96190.28;;;3.09;100.00
27429;BME280;14881;48.092;11.574;2023-11-22T11:01:42;96205.69;;;3.13;100.00
27429;BME280;14881;48.092;11.574;2023-11-22T11:04:17;96203.91;;;3.07;100.00
27429;BME280;14881;48.092;11.574;2023-11-22T11:06:46;96203.00;;;3.13;100.00
27429;BME280;14881;48.092;11.574;2023-11-22T11:09:18;96203.09;;;3.07;100.00
27429;BME280;14881;48.092;11.574;2023-11-22T11:11:47;96219.31;;;3.12;100.00
27429;BME280;14881;48.092;11.574;2023-11-22T11:14:15;96218.66;;;3.17;100.00
27429;BME280;14881;48.092;11.574;2023-11-22T11:16:43;96222.47;;;3.27;100.00
27429;BME280;14881;48.092;11.574;2023-11-22T11:19:15;96215.47;;;3.26;100.00
27429;BME280;14881;48.092;11.574;2023-11-22T11:21:43;96224.13;;;3.28;100.00
27429;BME280;14881;48.092;11.574;2023-11-22T11:24:09;96220.28;;;3.36;100.00
27429;BME280;14881;48.092;11.574;2023-11-22T11:26:36;96227.88;;;3.39;100.00
27429;BME280;14881;48.092;11.574;2023-11-22T11:29:03;96219.16;;;3.43;100.00
27429;BME280;14881;48.092;11.574;2023-11-22T11:31:32;96213.91;;;3.48;100.00
27429;BME280;14881;48.092;11.574;2023-11-22T11:34:01;96199.19;;;3.51;100.00
27429;BME280;14881;48.092;11.574;2023-11-22T11:36:29;96196.97;;;3.48;100.00
27429;BME280;14881;48.092;11.574;2023-11-22T11:38:59;96194.06;;;3.49;100.00
27429;BME280;14881;48.092;11.574;2023-11-22T11:41:28;96188.25;;;3.64;100.00
27429;BME280;14881;48.092;11.574;2023-11-22T11:43:56;96184.91;;;3.69;100.00
27429;BME280;14881;48.092;11.574;2023-11-22T11:46:23;96178.69;;;3.68;100.00
27429;BME280;14881;48.092;11.574;2023-11-22T11:48:52;96170.88;;;3.67;100.00
27429;BME280;14881;48.092;11.574;2023-11-22T11:51:20;96176.00;;;3.68;100.00
27429;BME280;14881;48.092;11.574;2023-11-22T11:53:47;96173.44;;;3.62;100.00
27429;BME280;14881;48.092;11.574;2023-11-22T11:56:14;96178.59;;;3.63;100.00
27429;BME280;14881;48.092;11.574;2023-11-22T11:58:41;96191.28;;;3.56;100.00
27429;BME280;14881;48.092;11.574;2023-11-22T12:01:08;96178.75;;;3.50;100.00
27429;BME280;14881;48.092;11.574;2023-11-22T12:03:35;96180.78;;;3.55;100.00
27429;BME280;14881;48.092;11.574;2023-11-22T12:06:03;96177.50;;;3.53;100.00
27429;BME280;14881;48.092;11.574;2023-11-22T12:08:30;96185.78;;;3.51;100.00
27429;BME280;14881;48.092;11.574;2023-11-22T12:11:02;96185.19;;;3.49;100.00
27429;BME280;14881;48.092;11.574;2023-11-22T12:13:29;96188.19;;;3.41;100.00
27429;BME280;14881;48.092;11.574;2023-11-22T12:15:57;96196.75;;;3.49;100.00
27429;BME280;14881;48.092;11.574;2023-11-22T12:18:23;96195.88;;;3.37;100.00
27429;BME280;14881;48.092;11.574;2023-11-22T12:20:57;96214.69;;;3.37;100.00
27429;BME280;14881;48.092;11.574;2023-11-22T12:23:25;96207.75;;;3.30;100.00
27429;BME280;14881;48.092;11.574;2023-11-22T12:25:54;96222.81;;;3.31;100.00
27429;BME280;14881;48.092;11.574;2023-11-22T12:28:22;96226.53;;;3.30;100.00
27429;BME280;14881;48.092;11.574;2023-11-22T12:30:52;96226.09;;;3.33;100.00
27429;BME280;14881;48.092;11.574;2023-11-22T12:33:19;96225.44;;;3.37;100.00
27429;BME280;14881;48.092;11.574;2023-11-22T12:35:46;96224.75;;;3.42;100.00
27429;BME280;14881;48.092;11.574;2023-11-22T12:38:14;96222.00;;;3.30;100.00
27429;BME280;14881;48.092;11.574;2023-11-22T12:40:44;96228.13;;;3.19;100.00
27429;BME280;14881;48.092;11.574;2023-11-22T12:43:13;96221.72;;;3.20;100.00
27429;BME280;14881;48.092;11.574;2023-11-22T12:45:40;96224.03;;;3.17;100.00
27429;BME280;14881;48.092;11.574;2023-11-22T12:48:23;96216.53;;;3.07;100.00
27429;BME280;14881;48.092;11.574;2023-11-22T12:50:50;96214.56;;;3.14;100.00